sensor_id;sensor_type;location;lat;lon;timestamp;P1;durP1;ratioP1;P2;durP2;ratioP2
19735;SDS011;32064;49.310;8.646;2024-01-06T00:01:35;2.47;;;1.90;;
19735;SDS011;32064;49.310;8.646;2024-01-06T00:04:00;2.47;;;2.10;;
19735;SDS011;32064;49.310;8.646;2024-01-06T00:06:26;2.00;;;1.90;;
19735;SDS011;32064;49.310;8.646;2024-01-06T00:08:51;2.67;;;1.90;;
19735;SDS011;32064;49.310;8.646;2024-01-06T00:11:22;2.37;;;2.07;;
19735;SDS011;32064;49.310;8.646;2024-01-06T00:13:47;2.10;;;1.83;;
19735;SDS011;32064;49.310;8.646;2024-01-06T00:16:13;2.37;;;1.67;;
19735;SDS011;32064;49.310;8.646;2024-01-06T00:18:41;2.20;;;1.93;;
19735;SDS011;32064;49.310;8.646;2024-01-06T00:21:06;7.00;;;3.00;;
19735;SDS011;32064;49.310;8.646;2024-01-06T00:23:33;2.70;;;2.10;;
19735;SDS011;32064;49.310;8.646;2024-01-06T00:25:58;2.27;;;2.07;;
19735;SDS011;32064;49.310;8.646;2024-01-06T00:28:24;2.10;;;2.00;;
19735;SDS011;32064;49.310;8.646;2024-01-06T00:30:49;4.20;;;2.60;;
19735;SDS011;32064;49.310;8.646;2024-01-06T00:33:14;2.87;;;2.23;;
19735;SDS011;32064;49.310;8.646;2024-01-06T00:35:40;4.53;;;2.67;;
19735;SDS011;32064;49.310;8.646;2024-01-06T00:38:06;6.80;;;2.30;;
19735;SDS011;32064;49.310;8.646;2024-01-06T00:40:31;3.60;;;2.53;;
19735;SDS011;32064;49.310;8.646;2024-01-06T00:42:57;4.73;;;3.10;;
19735;SDS011;32064;49.310;8.646;2024-01-06T00:45:23;3.30;;;2.57;;
19735;SDS011;32064;49.310;8.646;2024-01-06T00:47:48;2.57;;;1.97;;
19735;SDS011;32064;49.310;8.646;2024-01-06T00:50:14;2.53;;;1.90;;
19735;SDS011;32064;49.310;8.646;2024-01-06T00:52:39;4.00;;;2.43;;
19735;SDS011;32064;49.310;8.646;2024-01-06T00:55:05;2.67;;;2.20;;
19735;SDS011;32064;49.310;8.646;2024-01-06T00:57:30;2.30;;;1.97;;
19735;SDS011;32064;49.310;8.646;2024-01-06T00:59:56;3.77;;;2.47;;
19735;SDS011;32064;49.310;8.646;2024-01-06T01:02:21;1.57;;;1.47;;
19735;SDS011;32064;49.310;8.646;2024-01-06T01:04:46;2.30;;;1.80;;
19735;SDS011;32064;49.310;8.646;2024-01-06T01:07:12;3.33;;;2.03;;
19735;SDS011;32064;49.310;8.646;2024-01-06T01:09:37;2.77;;;2.20;;
19735;SDS011;32064;49.310;8.646;2024-01-06T01:12:03;1.87;;;1.60;;
19735;SDS011;32064;49.310;8.646;2024-01-06T01:14:28;1.60;;;1.50;;
19735;SDS011;32064;49.310;8.646;2024-01-06T01:16:53;2.13;;;1.90;;
19735;SDS011;32064;49.310;8.646;2024-01-06T01:19:19;1.70;;;1.40;;
19735;SDS011;32064;49.310;8.646;2024-01-06T01:21:44;2.40;;;2.20;;
19735;SDS011;32064;49.310;8.646;2024-01-06T01:24:10;1.50;;;1.40;;
19735;SDS011;32064;49.310;8.646;2024-01-06T01:26:35;2.43;;;2.03;;
19735;SDS011;32064;49.310;8.646;2024-01-06T01:29:00;2.33;;;1.67;;
19735;SDS011;32064;49.310;8.646;2024-01-06T01:31:26;2.60;;;1.63;;
19735;SDS011;32064;49.310;8.646;2024-01-06T01:33:51;2.63;;;2.03;;
19735;SDS011;32064;49.310;8.646;2024-01-06T01:36:16;2.87;;;1.80;;
19735;SDS011;32064;49.310;8.646;2024-01-06T01:38:43;1.77;;;1.67;;
19735;SDS011;32064;49.310;8.646;2024-01-06T01:41:08;2.30;;;1.47;;
19735;SDS011;32064;49.310;8.646;2024-01-06T01:43:34;2.93;;;1.60;;
19735;SDS011;32064;49.310;8.646;2024-01-06T01:45:59;3.70;;;2.47;;
19735;SDS011;32064;49.310;8.646;2024-01-06T01:48:25;2.03;;;1.83;;
19735;SDS011;32064;49.310;8.646;2024-01-06T01:50:51;2.30;;;1.87;;
19735;SDS011;32064;49.310;8.646;2024-01-06T01:53:18;2.53;;;1.73;;
19735;SDS011;32064;49.310;8.646;2024-01-06T01:55:44;2.37;;;2.13;;
19735;SDS011;32064;49.310;8.646;2024-01-06T01:58:12;7.37;;;1.97;;
19735;SDS011;32064;49.310;8.646;2024-01-06T02:00:38;7.70;;;2.27;;
19735;SDS011;32064;49.310;8.646;2024-01-06T02:03:04;2.53;;;2.10;;
19735;SDS011;32064;49.310;8.646;2024-01-06T02:05:30;2.07;;;1.77;;
19735;SDS011;32064;49.310;8.646;2024-01-06T02:07:56;3.87;;;1.93;;
19735;SDS011;32064;49.310;8.646;2024-01-06T02:10:21;1.53;;;1.43;;
19735;SDS011;32064;49.310;8.646;2024-01-06T02:12:47;6.13;;;1.73;;
19735;SDS011;32064;49.310;8.646;2024-01-06T02:15:13;2.13;;;1.93;;
19735;SDS011;32064;49.310;8.646;2024-01-06T02:17:39;4.97;;;2.00;;
19735;SDS011;32064;49.310;8.646;2024-01-06T02:20:06;2.30;;;2.10;;
19735;SDS011;32064;49.310;8.646;2024-01-06T02:22:33;2.90;;;2.30;;
19735;SDS011;32064;49.310;8.646;2024-01-06T02:25:01;2.70;;;2.00;;
19735;SDS011;32064;49.310;8.646;2024-01-06T02:27:27;2.47;;;1.93;;
19735;SDS011;32064;49.310;8.646;2024-01-06T02:29:52;2.13;;;1.67;;
19735;SDS011;32064;49.310;8.646;2024-01-06T02:32:17;2.90;;;1.90;;
19735;SDS011;32064;49.310;8.646;2024-01-06T02:34:43;1.57;;;1.47;;
19735;SDS011;32064;49.310;8.646;2024-01-06T02:37:08;3.57;;;2.23;;
19735;SDS011;32064;49.310;8.646;2024-01-06T02:39:33;1.63;;;1.47;;
19735;SDS011;32064;49.310;8.646;2024-01-06T02:41:59;2.63;;;2.37;;
19735;SDS011;32064;49.310;8.646;2024-01-06T02:44:24;2.57;;;2.37;;
19735;SDS011;32064;49.310;8.646;2024-01-06T02:46:50;5.27;;;2.30;;
19735;SDS011;32064;49.310;8.646;2024-01-06T02:49:15;3.47;;;2.20;;
19735;SDS011;32064;49.310;8.646;2024-01-06T02:51:40;6.03;;;2.27;;
19735;SDS011;32064;49.310;8.646;2024-01-06T02:54:06;3.07;;;1.80;;
19735;SDS011;32064;49.310;8.646;2024-01-06T02:56:31;2.73;;;2.07;;
19735;SDS011;32064;49.310;8.646;2024-01-06T02:58:56;1.67;;;1.57;;
19735;SDS011;32064;49.310;8.646;2024-01-06T03:01:22;3.93;;;2.33;;
19735;SDS011;32064;49.310;8.646;2024-01-06T03:03:47;1.70;;;1.60;;
19735;SDS011;32064;49.310;8.646;2024-01-06T03:06:12;1.90;;;1.33;;
19735;SDS011;32064;49.310;8.646;2024-01-06T03:08:38;2.37;;;1.80;;
19735;SDS011;32064;49.310;8.646;2024-01-06T03:11:03;2.33;;;1.90;;
19735;SDS011;32064;49.310;8.646;2024-01-06T03:13:30;1.57;;;1.47;;
19735;SDS011;32064;49.310;8.646;2024-01-06T03:15:55;1.20;;;1.10;;
19735;SDS011;32064;49.310;8.646;2024-01-06T03:18:21;2.73;;;1.40;;
19735;SDS011;32064;49.310;8.646;2024-01-06T03:20:46;2.43;;;1.50;;
19735;SDS011;32064;49.310;8.646;2024-01-06T03:23:12;2.40;;;1.60;;
19735;SDS011;32064;49.310;8.646;2024-01-06T03:25:37;1.07;;;1.00;;
19735;SDS011;32064;49.310;8.646;2024-01-06T03:28:02;3.10;;;1.63;;
19735;SDS011;32064;49.310;8.646;2024-01-06T03:30:28;3.73;;;1.50;;
19735;SDS011;32064;49.310;8.646;2024-01-06T03:32:53;9.13;;;2.73;;
19735;SDS011;32064;49.310;8.646;2024-01-06T03:35:19;1.57;;;1.43;;
19735;SDS011;32064;49.310;8.646;2024-01-06T03:37:44;3.07;;;1.80;;
19735;SDS011;32064;49.310;8.646;2024-01-06T03:40:10;2.27;;;1.97;;
19735;SDS011;32064;49.310;8.646;2024-01-06T03:42:36;3.63;;;2.00;;
19735;SDS011;32064;49.310;8.646;2024-01-06T03:45:02;4.20;;;1.30;;
19735;SDS011;32064;49.310;8.646;2024-01-06T03:47:27;1.47;;;1.30;;
19735;SDS011;32064;49.310;8.646;2024-01-06T03:49:53;4.20;;;1.90;;
19735;SDS011;32064;49.310;8.646;2024-01-06T03:52:18;8.63;;;1.57;;
19735;SDS011;32064;49.310;8.646;2024-01-06T03:54:44;1.60;;;1.47;;
19735;SDS011;32064;49.310;8.646;2024-01-06T03:57:10;3.53;;;1.40;;
19735;SDS011;32064;49.310;8.646;2024-01-06T03:59:35;1.03;;;0.90;;
19735;SDS011;32064;49.310;8.646;2024-01-06T04:02:00;3.23;;;1.20;;
19735;SDS011;32064;49.310;8.646;2024-01-06T04:04:26;1.27;;;1.17;;
19735;SDS011;32064;49.310;8.646;2024-01-06T04:06:51;3.10;;;1.47;;
19735;SDS011;32064;49.310;8.646;2024-01-06T04:09:16;1.27;;;1.17;;
19735;SDS011;32064;49.310;8.646;2024-01-06T04:11:42;1.77;;;1.30;;
19735;SDS011;32064;49.310;8.646;2024-01-06T04:14:07;1.90;;;1.27;;
19735;SDS011;32064;49.310;8.646;2024-01-06T04:16:32;1.27;;;0.97;;
19735;SDS011;32064;49.310;8.646;2024-01-06T04:18:58;1.20;;;0.90;;
19735;SDS011;32064;49.310;8.646;2024-01-06T04:21:23;0.73;;;0.73;;
19735;SDS011;32064;49.310;8.646;2024-01-06T04:23:49;7.67;;;1.50;;
19735;SDS011;32064;49.310;8.646;2024-01-06T04:26:14;5.03;;;1.73;;
19735;SDS011;32064;49.310;8.646;2024-01-06T04:28:40;1.03;;;1.00;;
19735;SDS011;32064;49.310;8.646;2024-01-06T04:31:05;1.30;;;1.20;;
19735;SDS011;32064;49.310;8.646;2024-01-06T04:33:30;1.37;;;0.90;;
19735;SDS011;32064;49.310;8.646;2024-01-06T04:35:56;1.50;;;1.10;;
19735;SDS011;32064;49.310;8.646;2024-01-06T04:38:22;1.20;;;1.00;;
19735;SDS011;32064;49.310;8.646;2024-01-06T04:40:48;0.97;;;0.90;;
19735;SDS011;32064;49.310;8.646;2024-01-06T04:43:13;6.87;;;1.23;;
19735;SDS011;32064;49.310;8.646;2024-01-06T04:45:39;1.60;;;1.20;;
19735;SDS011;32064;49.310;8.646;2024-01-06T04:48:04;2.17;;;1.37;;
19735;SDS011;32064;49.310;8.646;2024-01-06T04:50:30;3.10;;;1.57;;
19735;SDS011;32064;49.310;8.646;2024-01-06T04:52:56;3.80;;;1.63;;
19735;SDS011;32064;49.310;8.646;2024-01-06T04:55:21;1.53;;;1.30;;
19735;SDS011;32064;49.310;8.646;2024-01-06T04:57:48;1.57;;;1.03;;
19735;SDS011;32064;49.310;8.646;2024-01-06T05:00:13;1.93;;;1.00;;
19735;SDS011;32064;49.310;8.646;2024-01-06T05:02:39;1.43;;;0.90;;
19735;SDS011;32064;49.310;8.646;2024-01-06T05:05:04;0.90;;;0.90;;
19735;SDS011;32064;49.310;8.646;2024-01-06T05:07:30;1.20;;;1.10;;
19735;SDS011;32064;49.310;8.646;2024-01-06T05:09:55;2.53;;;1.47;;
19735;SDS011;32064;49.310;8.646;2024-01-06T05:12:21;3.33;;;1.27;;
19735;SDS011;32064;49.310;8.646;2024-01-06T05:14:46;2.40;;;1.30;;
19735;SDS011;32064;49.310;8.646;2024-01-06T05:17:11;2.90;;;1.60;;
19735;SDS011;32064;49.310;8.646;2024-01-06T05:19:37;1.13;;;1.00;;
19735;SDS011;32064;49.310;8.646;2024-01-06T05:22:03;1.93;;;1.10;;
19735;SDS011;32064;49.310;8.646;2024-01-06T05:24:28;1.87;;;1.40;;
19735;SDS011;32064;49.310;8.646;2024-01-06T05:26:53;1.97;;;1.30;;
19735;SDS011;32064;49.310;8.646;2024-01-06T05:29:19;4.93;;;1.10;;
19735;SDS011;32064;49.310;8.646;2024-01-06T05:31:44;1.77;;;1.20;;
19735;SDS011;32064;49.310;8.646;2024-01-06T05:34:12;1.47;;;1.23;;
19735;SDS011;32064;49.310;8.646;2024-01-06T05:36:37;0.80;;;0.70;;
19735;SDS011;32064;49.310;8.646;2024-01-06T05:39:02;0.93;;;0.87;;
19735;SDS011;32064;49.310;8.646;2024-01-06T05:41:28;2.50;;;1.20;;
19735;SDS011;32064;49.310;8.646;2024-01-06T05:43:53;1.03;;;0.93;;
19735;SDS011;32064;49.310;8.646;2024-01-06T05:46:23;2.40;;;1.20;;
19735;SDS011;32064;49.310;8.646;2024-01-06T05:48:49;4.27;;;1.20;;
19735;SDS011;32064;49.310;8.646;2024-01-06T05:51:15;0.70;;;0.70;;
19735;SDS011;32064;49.310;8.646;2024-01-06T05:53:40;0.67;;;0.67;;
19735;SDS011;32064;49.310;8.646;2024-01-06T05:56:07;2.50;;;1.37;;
19735;SDS011;32064;49.310;8.646;2024-01-06T05:58:34;1.90;;;1.17;;
19735;SDS011;32064;49.310;8.646;2024-01-06T06:00:59;3.90;;;1.00;;
19735;SDS011;32064;49.310;8.646;2024-01-06T06:03:24;1.00;;;0.90;;
19735;SDS011;32064;49.310;8.646;2024-01-06T06:05:50;1.27;;;1.07;;
19735;SDS011;32064;49.310;8.646;2024-01-06T06:08:15;2.87;;;1.00;;
19735;SDS011;32064;49.310;8.646;2024-01-06T06:10:41;1.53;;;1.10;;
19735;SDS011;32064;49.310;8.646;2024-01-06T06:13:16;1.20;;;1.10;;
19735;SDS011;32064;49.310;8.646;2024-01-06T06:15:42;1.77;;;1.03;;
19735;SDS011;32064;49.310;8.646;2024-01-06T06:18:07;0.80;;;0.80;;
19735;SDS011;32064;49.310;8.646;2024-01-06T06:20:32;2.93;;;1.47;;
19735;SDS011;32064;49.310;8.646;2024-01-06T06:22:58;1.90;;;1.07;;
19735;SDS011;32064;49.310;8.646;2024-01-06T06:25:23;1.97;;;1.47;;
19735;SDS011;32064;49.310;8.646;2024-01-06T06:27:48;1.87;;;1.20;;
19735;SDS011;32064;49.310;8.646;2024-01-06T06:30:14;1.70;;;0.97;;
19735;SDS011;32064;49.310;8.646;2024-01-06T06:32:39;1.20;;;0.83;;
19735;SDS011;32064;49.310;8.646;2024-01-06T06:35:05;1.53;;;1.00;;
19735;SDS011;32064;49.310;8.646;2024-01-06T06:37:31;2.93;;;0.93;;
19735;SDS011;32064;49.310;8.646;2024-01-06T06:39:56;1.20;;;0.90;;
19735;SDS011;32064;49.310;8.646;2024-01-06T06:42:22;1.20;;;1.10;;
19735;SDS011;32064;49.310;8.646;2024-01-06T06:44:47;1.67;;;1.23;;
19735;SDS011;32064;49.310;8.646;2024-01-06T06:47:12;1.10;;;1.03;;
19735;SDS011;32064;49.310;8.646;2024-01-06T06:49:38;1.70;;;1.13;;
19735;SDS011;32064;49.310;8.646;2024-01-06T06:52:03;2.80;;;1.20;;
19735;SDS011;32064;49.310;8.646;2024-01-06T06:54:29;1.50;;;1.27;;
19735;SDS011;32064;49.310;8.646;2024-01-06T06:56:54;2.60;;;1.20;;
19735;SDS011;32064;49.310;8.646;2024-01-06T06:59:20;1.00;;;0.97;;
19735;SDS011;32064;49.310;8.646;2024-01-06T07:01:45;1.73;;;1.00;;
19735;SDS011;32064;49.310;8.646;2024-01-06T07:04:14;1.10;;;1.00;;
19735;SDS011;32064;49.310;8.646;2024-01-06T07:06:39;1.77;;;1.47;;
19735;SDS011;32064;49.310;8.646;2024-01-06T07:09:04;1.93;;;1.30;;
19735;SDS011;32064;49.310;8.646;2024-01-06T07:11:30;0.97;;;0.80;;
19735;SDS011;32064;49.310;8.646;2024-01-06T07:13:55;1.20;;;0.80;;
19735;SDS011;32064;49.310;8.646;2024-01-06T07:16:20;11.90;;;1.60;;
19735;SDS011;32064;49.310;8.646;2024-01-06T07:18:46;3.13;;;1.23;;
19735;SDS011;32064;49.310;8.646;2024-01-06T07:21:12;7.03;;;1.20;;
19735;SDS011;32064;49.310;8.646;2024-01-06T07:23:37;1.53;;;1.00;;
19735;SDS011;32064;49.310;8.646;2024-01-06T07:26:03;1.23;;;0.90;;
19735;SDS011;32064;49.310;8.646;2024-01-06T07:28:28;0.90;;;0.80;;
19735;SDS011;32064;49.310;8.646;2024-01-06T07:30:54;0.83;;;0.83;;
19735;SDS011;32064;49.310;8.646;2024-01-06T07:33:20;1.10;;;1.00;;
19735;SDS011;32064;49.310;8.646;2024-01-06T07:35:46;3.03;;;1.63;;
19735;SDS011;32064;49.310;8.646;2024-01-06T07:38:11;2.40;;;1.50;;
19735;SDS011;32064;49.310;8.646;2024-01-06T07:40:37;1.50;;;1.20;;
19735;SDS011;32064;49.310;8.646;2024-01-06T07:43:03;1.30;;;1.00;;
19735;SDS011;32064;49.310;8.646;2024-01-06T07:45:29;0.83;;;0.83;;
19735;SDS011;32064;49.310;8.646;2024-01-06T07:47:55;2.80;;;1.50;;
19735;SDS011;32064;49.310;8.646;2024-01-06T07:50:20;1.73;;;1.57;;
19735;SDS011;32064;49.310;8.646;2024-01-06T07:52:45;1.37;;;1.27;;
19735;SDS011;32064;49.310;8.646;2024-01-06T07:55:11;0.97;;;0.97;;
19735;SDS011;32064;49.310;8.646;2024-01-06T07:57:36;1.30;;;1.20;;
19735;SDS011;32064;49.310;8.646;2024-01-06T08:00:02;2.33;;;1.40;;
19735;SDS011;32064;49.310;8.646;2024-01-06T08:02:30;1.40;;;1.30;;
19735;SDS011;32064;49.310;8.646;2024-01-06T08:04:56;2.80;;;1.87;;
19735;SDS011;32064;49.310;8.646;2024-01-06T08:07:22;5.27;;;1.20;;
19735;SDS011;32064;49.310;8.646;2024-01-06T08:09:48;1.53;;;1.37;;
19735;SDS011;32064;49.310;8.646;2024-01-06T08:12:14;2.87;;;1.37;;
19735;SDS011;32064;49.310;8.646;2024-01-06T08:14:40;1.60;;;1.43;;
19735;SDS011;32064;49.310;8.646;2024-01-06T08:17:05;1.60;;;1.00;;
19735;SDS011;32064;49.310;8.646;2024-01-06T08:19:31;1.20;;;1.10;;
19735;SDS011;32064;49.310;8.646;2024-01-06T08:21:58;2.23;;;1.20;;
19735;SDS011;32064;49.310;8.646;2024-01-06T08:24:23;3.13;;;1.60;;
19735;SDS011;32064;49.310;8.646;2024-01-06T08:26:50;3.47;;;1.53;;
19735;SDS011;32064;49.310;8.646;2024-01-06T08:29:15;3.23;;;2.13;;
19735;SDS011;32064;49.310;8.646;2024-01-06T08:31:41;1.97;;;1.83;;
19735;SDS011;32064;49.310;8.646;2024-01-06T08:34:07;1.93;;;1.37;;
19735;SDS011;32064;49.310;8.646;2024-01-06T08:36:33;1.10;;;1.00;;
19735;SDS011;32064;49.310;8.646;2024-01-06T08:38:59;1.40;;;1.10;;
19735;SDS011;32064;49.310;8.646;2024-01-06T08:41:24;1.70;;;1.23;;
19735;SDS011;32064;49.310;8.646;2024-01-06T08:43:50;1.73;;;1.30;;
19735;SDS011;32064;49.310;8.646;2024-01-06T08:46:15;1.17;;;1.07;;
19735;SDS011;32064;49.310;8.646;2024-01-06T08:48:40;1.70;;;1.50;;
19735;SDS011;32064;49.310;8.646;2024-01-06T08:51:06;2.17;;;1.97;;
19735;SDS011;32064;49.310;8.646;2024-01-06T08:53:31;2.60;;;2.10;;
19735;SDS011;32064;49.310;8.646;2024-01-06T08:55:57;2.30;;;1.97;;
19735;SDS011;32064;49.310;8.646;2024-01-06T08:58:22;2.10;;;1.40;;
19735;SDS011;32064;49.310;8.646;2024-01-06T09:00:47;1.97;;;1.67;;
19735;SDS011;32064;49.310;8.646;2024-01-06T09:03:13;3.13;;;1.47;;
19735;SDS011;32064;49.310;8.646;2024-01-06T09:05:38;2.80;;;1.60;;
19735;SDS011;32064;49.310;8.646;2024-01-06T09:08:04;3.40;;;1.50;;
19735;SDS011;32064;49.310;8.646;2024-01-06T09:10:29;3.50;;;2.43;;
19735;SDS011;32064;49.310;8.646;2024-01-06T09:12:55;5.00;;;2.50;;
19735;SDS011;32064;49.310;8.646;2024-01-06T09:15:20;4.67;;;2.30;;
19735;SDS011;32064;49.310;8.646;2024-01-06T09:17:45;6.07;;;2.10;;
19735;SDS011;32064;49.310;8.646;2024-01-06T09:20:11;3.80;;;1.70;;
19735;SDS011;32064;49.310;8.646;2024-01-06T09:22:36;1.93;;;1.73;;
19735;SDS011;32064;49.310;8.646;2024-01-06T09:25:02;4.40;;;2.37;;
19735;SDS011;32064;49.310;8.646;2024-01-06T09:27:27;2.67;;;1.73;;
19735;SDS011;32064;49.310;8.646;2024-01-06T09:29:53;2.87;;;1.80;;
19735;SDS011;32064;49.310;8.646;2024-01-06T09:32:18;2.33;;;1.70;;
19735;SDS011;32064;49.310;8.646;2024-01-06T09:34:44;2.53;;;1.77;;
19735;SDS011;32064;49.310;8.646;2024-01-06T09:37:09;3.10;;;1.87;;
19735;SDS011;32064;49.310;8.646;2024-01-06T09:39:34;11.07;;;2.37;;
19735;SDS011;32064;49.310;8.646;2024-01-06T09:42:00;1.33;;;1.23;;
19735;SDS011;32064;49.310;8.646;2024-01-06T09:44:26;1.83;;;1.23;;
19735;SDS011;32064;49.310;8.646;2024-01-06T09:46:51;2.07;;;1.40;;
19735;SDS011;32064;49.310;8.646;2024-01-06T09:49:22;3.03;;;1.70;;
19735;SDS011;32064;49.310;8.646;2024-01-06T09:51:49;2.10;;;1.90;;
19735;SDS011;32064;49.310;8.646;2024-01-06T09:54:16;3.70;;;2.10;;
19735;SDS011;32064;49.310;8.646;2024-01-06T09:56:47;2.53;;;1.87;;
19735;SDS011;32064;49.310;8.646;2024-01-06T09:59:14;3.40;;;1.70;;
19735;SDS011;32064;49.310;8.646;2024-01-06T10:01:40;3.00;;;1.50;;
19735;SDS011;32064;49.310;8.646;2024-01-06T10:04:06;2.37;;;2.03;;
19735;SDS011;32064;49.310;8.646;2024-01-06T10:06:32;6.23;;;2.33;;
19735;SDS011;32064;49.310;8.646;2024-01-06T10:08:57;2.87;;;2.00;;
19735;SDS011;32064;49.310;8.646;2024-01-06T10:11:23;1.93;;;1.53;;
19735;SDS011;32064;49.310;8.646;2024-01-06T10:13:49;3.23;;;2.33;;
19735;SDS011;32064;49.310;8.646;2024-01-06T10:16:15;2.20;;;2.00;;
19735;SDS011;32064;49.310;8.646;2024-01-06T10:18:41;9.90;;;3.60;;
19735;SDS011;32064;49.310;8.646;2024-01-06T10:21:06;2.60;;;2.30;;
19735;SDS011;32064;49.310;8.646;2024-01-06T10:23:32;5.33;;;1.97;;
19735;SDS011;32064;49.310;8.646;2024-01-06T10:25:58;2.03;;;1.57;;
19735;SDS011;32064;49.310;8.646;2024-01-06T10:28:24;2.97;;;1.93;;
19735;SDS011;32064;49.310;8.646;2024-01-06T10:30:53;2.10;;;1.90;;
19735;SDS011;32064;49.310;8.646;2024-01-06T10:33:20;3.70;;;2.03;;
19735;SDS011;32064;49.310;8.646;2024-01-06T10:35:46;2.30;;;1.67;;
19735;SDS011;32064;49.310;8.646;2024-01-06T10:38:12;4.70;;;1.50;;
19735;SDS011;32064;49.310;8.646;2024-01-06T10:40:39;3.70;;;2.37;;
19735;SDS011;32064;49.310;8.646;2024-01-06T10:43:04;3.17;;;2.87;;
19735;SDS011;32064;49.310;8.646;2024-01-06T10:45:30;3.13;;;2.83;;
19735;SDS011;32064;49.310;8.646;2024-01-06T10:47:56;8.93;;;6.07;;
19735;SDS011;32064;49.310;8.646;2024-01-06T10:50:22;1.87;;;1.50;;
19735;SDS011;32064;49.310;8.646;2024-01-06T10:52:48;3.30;;;2.57;;
19735;SDS011;32064;49.310;8.646;2024-01-06T10:55:17;4.57;;;2.27;;
19735;SDS011;32064;49.310;8.646;2024-01-06T10:57:45;1.80;;;1.67;;
19735;SDS011;32064;49.310;8.646;2024-01-06T11:00:11;4.27;;;2.23;;
19735;SDS011;32064;49.310;8.646;2024-01-06T11:02:37;2.07;;;1.73;;
19735;SDS011;32064;49.310;8.646;2024-01-06T11:05:04;2.47;;;1.70;;
19735;SDS011;32064;49.310;8.646;2024-01-06T11:07:33;4.43;;;2.93;;
19735;SDS011;32064;49.310;8.646;2024-01-06T11:12:34;1.77;;;1.67;;
19735;SDS011;32064;49.310;8.646;2024-01-06T11:15:00;2.97;;;1.57;;
19735;SDS011;32064;49.310;8.646;2024-01-06T11:20:23;2.43;;;2.13;;
19735;SDS011;32064;49.310;8.646;2024-01-06T11:22:50;3.23;;;2.13;;
19735;SDS011;32064;49.310;8.646;2024-01-06T11:25:17;3.23;;;2.43;;
19735;SDS011;32064;49.310;8.646;2024-01-06T11:27:45;2.70;;;1.73;;
19735;SDS011;32064;49.310;8.646;2024-01-06T11:30:21;1.60;;;1.50;;
19735;SDS011;32064;49.310;8.646;2024-01-06T11:32:51;1.70;;;1.50;;
19735;SDS011;32064;49.310;8.646;2024-01-06T11:35:20;2.33;;;2.13;;
19735;SDS011;32064;49.310;8.646;2024-01-06T11:40:16;1.97;;;1.77;;
19735;SDS011;32064;49.310;8.646;2024-01-06T11:42:58;8.03;;;2.40;;
19735;SDS011;32064;49.310;8.646;2024-01-06T11:45:25;5.03;;;2.67;;
19735;SDS011;32064;49.310;8.646;2024-01-06T11:47:51;1.73;;;1.63;;
19735;SDS011;32064;49.310;8.646;2024-01-06T11:50:21;3.47;;;2.03;;
19735;SDS011;32064;49.310;8.646;2024-01-06T11:52:46;3.17;;;1.87;;
19735;SDS011;32064;49.310;8.646;2024-01-06T11:55:12;2.90;;;2.07;;
19735;SDS011;32064;49.310;8.646;2024-01-06T11:57:37;1.30;;;1.20;;
19735;SDS011;32064;49.310;8.646;2024-01-06T12:00:03;1.30;;;1.20;;
19735;SDS011;32064;49.310;8.646;2024-01-06T12:02:29;2.20;;;1.87;;
19735;SDS011;32064;49.310;8.646;2024-01-06T12:04:55;1.07;;;1.07;;
19735;SDS011;32064;49.310;8.646;2024-01-06T12:07:21;2.00;;;1.83;;
19735;SDS011;32064;49.310;8.646;2024-01-06T12:09:51;2.90;;;2.07;;
19735;SDS011;32064;49.310;8.646;2024-01-06T12:12:25;2.93;;;1.63;;
19735;SDS011;32064;49.310;8.646;2024-01-06T12:14:50;2.30;;;1.93;;
19735;SDS011;32064;49.310;8.646;2024-01-06T12:17:16;1.73;;;1.60;;
19735;SDS011;32064;49.310;8.646;2024-01-06T12:19:41;1.60;;;1.50;;
19735;SDS011;32064;49.310;8.646;2024-01-06T12:22:09;1.97;;;1.73;;
19735;SDS011;32064;49.310;8.646;2024-01-06T12:24:37;2.53;;;2.20;;
19735;SDS011;32064;49.310;8.646;2024-01-06T12:27:03;4.60;;;2.63;;
19735;SDS011;32064;49.310;8.646;2024-01-06T12:29:28;4.07;;;2.70;;
19735;SDS011;32064;49.310;8.646;2024-01-06T12:31:54;1.83;;;1.73;;
19735;SDS011;32064;49.310;8.646;2024-01-06T12:34:20;2.30;;;2.10;;
19735;SDS011;32064;49.310;8.646;2024-01-06T12:36:47;2.03;;;1.83;;
19735;SDS011;32064;49.310;8.646;2024-01-06T12:39:12;2.47;;;1.70;;
19735;SDS011;32064;49.310;8.646;2024-01-06T12:41:41;2.50;;;1.90;;
19735;SDS011;32064;49.310;8.646;2024-01-06T12:44:08;3.03;;;2.00;;
19735;SDS011;32064;49.310;8.646;2024-01-06T12:46:34;4.30;;;1.83;;
19735;SDS011;32064;49.310;8.646;2024-01-06T12:48:59;1.77;;;1.60;;
19735;SDS011;32064;49.310;8.646;2024-01-06T12:51:25;2.63;;;2.07;;
19735;SDS011;32064;49.310;8.646;2024-01-06T12:53:50;2.10;;;1.80;;
19735;SDS011;32064;49.310;8.646;2024-01-06T12:56:15;1.83;;;1.73;;
19735;SDS011;32064;49.310;8.646;2024-01-06T12:58:42;1.87;;;1.77;;
19735;SDS011;32064;49.310;8.646;2024-01-06T13:01:07;1.37;;;1.20;;
19735;SDS011;32064;49.310;8.646;2024-01-06T13:03:33;1.40;;;1.30;;
19735;SDS011;32064;49.310;8.646;2024-01-06T13:05:59;1.63;;;1.37;;
19735;SDS011;32064;49.310;8.646;2024-01-06T13:08:25;3.30;;;2.83;;
19735;SDS011;32064;49.310;8.646;2024-01-06T13:10:51;4.17;;;2.10;;
19735;SDS011;32064;49.310;8.646;2024-01-06T13:13:17;3.83;;;2.40;;
19735;SDS011;32064;49.310;8.646;2024-01-06T13:15:42;2.50;;;2.17;;
19735;SDS011;32064;49.310;8.646;2024-01-06T13:18:08;2.33;;;2.13;;
19735;SDS011;32064;49.310;8.646;2024-01-06T13:20:33;1.83;;;1.73;;
19735;SDS011;32064;49.310;8.646;2024-01-06T13:22:59;5.67;;;2.27;;
19735;SDS011;32064;49.310;8.646;2024-01-06T13:25:24;2.87;;;2.37;;
19735;SDS011;32064;49.310;8.646;2024-01-06T13:27:49;4.60;;;2.67;;
19735;SDS011;32064;49.310;8.646;2024-01-06T13:30:15;3.83;;;2.77;;
19735;SDS011;32064;49.310;8.646;2024-01-06T13:32:41;4.47;;;3.57;;
19735;SDS011;32064;49.310;8.646;2024-01-06T13:35:07;5.87;;;2.53;;
19735;SDS011;32064;49.310;8.646;2024-01-06T13:37:32;4.73;;;3.40;;
19735;SDS011;32064;49.310;8.646;2024-01-06T13:39:58;3.87;;;3.40;;
19735;SDS011;32064;49.310;8.646;2024-01-06T13:42:23;3.77;;;3.17;;
19735;SDS011;32064;49.310;8.646;2024-01-06T13:44:49;3.53;;;2.33;;
19735;SDS011;32064;49.310;8.646;2024-01-06T13:47:14;4.63;;;2.00;;
19735;SDS011;32064;49.310;8.646;2024-01-06T13:49:40;4.03;;;2.33;;
19735;SDS011;32064;49.310;8.646;2024-01-06T13:52:05;3.37;;;2.37;;
19735;SDS011;32064;49.310;8.646;2024-01-06T13:54:33;2.70;;;2.50;;
19735;SDS011;32064;49.310;8.646;2024-01-06T13:56:59;6.20;;;3.50;;
19735;SDS011;32064;49.310;8.646;2024-01-06T13:59:24;2.77;;;2.07;;
19735;SDS011;32064;49.310;8.646;2024-01-06T14:01:50;3.80;;;2.00;;
19735;SDS011;32064;49.310;8.646;2024-01-06T14:04:16;2.83;;;2.37;;
19735;SDS011;32064;49.310;8.646;2024-01-06T14:06:42;3.10;;;2.80;;
19735;SDS011;32064;49.310;8.646;2024-01-06T14:09:08;5.10;;;2.60;;
19735;SDS011;32064;49.310;8.646;2024-01-06T14:11:34;2.43;;;1.87;;
19735;SDS011;32064;49.310;8.646;2024-01-06T14:13:59;3.13;;;1.90;;
19735;SDS011;32064;49.310;8.646;2024-01-06T14:16:25;2.80;;;2.20;;
19735;SDS011;32064;49.310;8.646;2024-01-06T14:18:51;2.10;;;1.93;;
19735;SDS011;32064;49.310;8.646;2024-01-06T14:21:17;5.23;;;2.00;;
19735;SDS011;32064;49.310;8.646;2024-01-06T14:23:48;2.13;;;1.93;;
19735;SDS011;32064;49.310;8.646;2024-01-06T14:26:15;1.80;;;1.60;;
19735;SDS011;32064;49.310;8.646;2024-01-06T14:28:42;2.00;;;1.90;;
19735;SDS011;32064;49.310;8.646;2024-01-06T14:31:07;2.80;;;2.03;;
19735;SDS011;32064;49.310;8.646;2024-01-06T14:33:35;2.73;;;2.20;;
19735;SDS011;32064;49.310;8.646;2024-01-06T14:36:01;3.47;;;3.17;;
19735;SDS011;32064;49.310;8.646;2024-01-06T14:38:26;3.67;;;2.90;;
19735;SDS011;32064;49.310;8.646;2024-01-06T14:40:52;2.67;;;2.40;;
19735;SDS011;32064;49.310;8.646;2024-01-06T14:43:18;2.90;;;2.43;;
19735;SDS011;32064;49.310;8.646;2024-01-06T14:45:43;3.13;;;2.80;;
19735;SDS011;32064;49.310;8.646;2024-01-06T14:48:09;7.57;;;3.50;;